NCAR-RAP Real-Time Weather Data

Output produced by METARs form (12 May 2021  11:45 UTC)
found at http://weather.rap.ucar.edu/surface/
 
KBIL 121053Z 22011KT 10SM FEW080 04/02 A3018 RMK AO2 SLP231 T00390017
KBIL 120953Z 23007KT 10SM CLR 06/02 A3018 RMK AO2 SLP222 T00560022
KBIL 120853Z 22006KT 10SM CLR 06/03 A3017 RMK AO2 SLP216 T00610028 58004
KBIL 120753Z 20007KT 10SM FEW070 06/03 A3018 RMK AO2 SLP218 T00610028
KBIL 120653Z 12004KT 10SM FEW050 08/03 A3019 RMK AO2 SLP220 T00780033 401560022
KBIL 120553Z 00000KT 10SM FEW070 08/03 A3018 RMK AO2 SLP221 T00780028 10117 20061 51006
KBIL 120453Z 05005KT 10SM BKN070 08/03 A3018 RMK AO2 SLP220 T00830033
KBIL 120353Z 28004KT 10SM FEW065 SCT090 SCT120 09/03 A3018 RMK AO2 SLP225 T00890033
KBIL 120253Z 19006KT 10SM BKN080 11/03 A3017 RMK AO2 SLP218 SHRA DSNT SW-NE T01060028 55002
KBIL 120153Z 05003KT 10SM FEW060 BKN095 11/01 A3015 RMK AO2 SLP216 SHRA DSNT ALQDS T01110011
KBIL 120053Z 04009KT 10SM FEW055 SCT080 12/03 A3016 RMK AO2 SLP219 CB DSNT N NE SW SHRA DSNT ALQDS T01170028
KBIL 112353Z 04010KT 10SM FEW065 BKN095 11/04 A3017 RMK AO2 RAE06 SLP224 CB DSNT N SE SHRA DSNT ALQDS P0000 60000 T01110039 10156 20094 53006
KBIL 112253Z 32014KT 10SM -RA FEW046 BKN055 OVC070 09/04 A3017 RMK AO2 WSHFT 2204 RAB30 SLP224 CB DSNT N P0000 T00940044
KBIL 112224Z 29014KT 10SM BKN060 OVC080 11/02 A3017 RMK AO2 WSHFT 2204 VIRGA E S CB SHRA DSNT W-N T01110017
KBIL 112153Z 18008KT 140V210 10SM SCT055 BKN065 OVC090 13/00 A3015 RMK AO2 LTG DSNT W AND NW TSE10 SLP213 CB DSNT S W-NE T01330000